Diecisiete De Agosto, Argentina
Current Conditions -  °F | °C
As of 3:00 PM on Friday 24 Oct 2014 (Local Time) from SAZN Reporting Station
Clear Clear  
Wind Chill: 77°   Ceiling: Unl
Heat Index: 78°   Visibility: 6mi
Dew Point: 52°   Wind: 3mph
Humidity: 41%   Direction: 90°E
Pressure: 30"   Gusts: NA
Location:  37.91°S, 62.94°W
Report Text: SAZN 241800Z 09003KT CAVOK 25/11 Q1016
Loading
Personal Weather Stations






























Interactive Weather Map
Tropical Storm Tracking
New forecast layout! Learn more

10-Day Weather Forecast

Advertisements
Track Severe Weather on mobile